首页
METAR-TAF:

METAR-TAF

机场 :

新加坡樟宜机场

新加坡, 新加坡

纬度: 01-22N, 经度: 103-59E, 海拔: 5米

当前天气观测

该预报发布于37分钟前的14:00 UTC
风速4节,风向西北,在西之间变化
温度 27°C
湿度 79%
气压 1013 hPa
能见度10公里或以上
少量云层高于2000英尺
多云层高于15000英尺

METAR: WSSS 231400Z 31004KT 270V010 9999 FEW020 BKN150 27/23 Q1013 NOSIG

时间: 22:37 (14:37 UTC)

预报

该预报发布于3小时和37分钟前的11:00 UTC
预报有效从23日的 12点(UTC)到 24日的 18点(UTC)
风速7节,风向西南
能见度10公里或以上
少量云层高于1800英尺, 积雨云.
散云层高于2000英尺
短暂存在
从 24日的 03点(UTC)到 24日的 07点(UTC)
能見度: 3000
少量云层高于1200英尺, 积雨云.
多云层高于1500英尺
雷暴, 雨

TAF: WSSS 231100Z 2312/2418 23007KT 9999 FEW018CB SCT020 TEMPO 2403/2407 3000 TSRA FEW012CB BKN015

超过4000个机场的气象观测和天气预报(METAR&TAF报告)。

可查询的气象台以黄色和红色小点在地图上表示。

将鼠标移到小点上方,可查看气象台名称。

然后点击查看天气观测和预报。

如需切换地图:点击带黑十字的绿色按钮放大地图;点击带横线的绿色按钮缩小地图;或者点击绿色箭头查看邻近地区的地图。


METAR-TAF: